sensor_id;sensor_type;location;lat;lon;timestamp;temperature;humidity
61253;DHT22;47127;47.516;8.596;2023-04-24T00:01:30;12.20;99.90
61253;DHT22;47127;47.516;8.596;2023-04-24T00:03:57;12.30;99.90
61253;DHT22;47127;47.516;8.596;2023-04-24T00:06:27;12.30;99.90
61253;DHT22;47127;47.516;8.596;2023-04-24T00:09:00;12.30;99.90
61253;DHT22;47127;47.516;8.596;2023-04-24T00:11:26;12.40;99.90
61253;DHT22;47127;47.516;8.596;2023-04-24T00:13:52;12.40;99.90
61253;DHT22;47127;47.516;8.596;2023-04-24T00:16:17;12.40;99.90
61253;DHT22;47127;47.516;8.596;2023-04-24T00:18:43;12.40;99.90
61253;DHT22;47127;47.516;8.596;2023-04-24T00:21:10;12.40;99.90
61253;DHT22;47127;47.516;8.596;2023-04-24T00:23:36;12.40;99.90
61253;DHT22;47127;47.516;8.596;2023-04-24T00:26:02;12.30;99.90
61253;DHT22;47127;47.516;8.596;2023-04-24T00:28:27;12.30;99.90
61253;DHT22;47127;47.516;8.596;2023-04-24T00:30:53;12.10;99.90
61253;DHT22;47127;47.516;8.596;2023-04-24T00:33:19;12.20;99.90
61253;DHT22;47127;47.516;8.596;2023-04-24T00:35:45;12.10;99.90
61253;DHT22;47127;47.516;8.596;2023-04-24T00:38:10;12.00;99.90
61253;DHT22;47127;47.516;8.596;2023-04-24T00:40:36;12.00;99.90
61253;DHT22;47127;47.516;8.596;2023-04-24T00:43:01;12.00;99.90
61253;DHT22;47127;47.516;8.596;2023-04-24T00:45:27;11.90;99.90
61253;DHT22;47127;47.516;8.596;2023-04-24T00:47:53;11.90;99.90
61253;DHT22;47127;47.516;8.596;2023-04-24T00:50:20;11.90;99.90
61253;DHT22;47127;47.516;8.596;2023-04-24T00:52:46;11.90;99.90
61253;DHT22;47127;47.516;8.596;2023-04-24T00:55:12;12.00;99.90
61253;DHT22;47127;47.516;8.596;2023-04-24T00:57:38;12.00;99.90
61253;DHT22;47127;47.516;8.596;2023-04-24T01:00:05;11.90;99.90
61253;DHT22;47127;47.516;8.596;2023-04-24T01:02:31;11.90;99.90
61253;DHT22;47127;47.516;8.596;2023-04-24T01:05:00;11.80;99.90
61253;DHT22;47127;47.516;8.596;2023-04-24T01:07:26;11.80;99.90
61253;DHT22;47127;47.516;8.596;2023-04-24T01:09:52;11.70;99.90
61253;DHT22;47127;47.516;8.596;2023-04-24T01:12:19;11.70;99.90
61253;DHT22;47127;47.516;8.596;2023-04-24T01:14:45;11.70;99.90
61253;DHT22;47127;47.516;8.596;2023-04-24T01:17:11;11.70;99.90
61253;DHT22;47127;47.516;8.596;2023-04-24T01:19:37;11.70;99.90
61253;DHT22;47127;47.516;8.596;2023-04-24T01:22:08;11.70;99.90
61253;DHT22;47127;47.516;8.596;2023-04-24T01:24:34;11.70;99.90
61253;DHT22;47127;47.516;8.596;2023-04-24T01:26:59;11.70;99.90
61253;DHT22;47127;47.516;8.596;2023-04-24T01:29:26;11.80;99.90
61253;DHT22;47127;47.516;8.596;2023-04-24T01:31:52;11.80;99.90
61253;DHT22;47127;47.516;8.596;2023-04-24T01:34:18;11.80;99.90
61253;DHT22;47127;47.516;8.596;2023-04-24T01:36:45;11.70;99.90
61253;DHT22;47127;47.516;8.596;2023-04-24T01:39:12;11.70;99.90
61253;DHT22;47127;47.516;8.596;2023-04-24T01:41:37;11.70;99.90
61253;DHT22;47127;47.516;8.596;2023-04-24T01:44:03;11.60;99.90
61253;DHT22;47127;47.516;8.596;2023-04-24T01:46:29;11.50;99.90
61253;DHT22;47127;47.516;8.596;2023-04-24T01:48:56;11.50;99.90
61253;DHT22;47127;47.516;8.596;2023-04-24T01:51:21;11.60;99.90
61253;DHT22;47127;47.516;8.596;2023-04-24T01:53:47;11.50;99.90
61253;DHT22;47127;47.516;8.596;2023-04-24T01:56:14;11.60;99.90
61253;DHT22;47127;47.516;8.596;2023-04-24T01:58:39;11.50;99.90
61253;DHT22;47127;47.516;8.596;2023-04-24T02:01:06;11.50;99.90
61253;DHT22;47127;47.516;8.596;2023-04-24T02:03:32;11.40;99.90
61253;DHT22;47127;47.516;8.596;2023-04-24T02:05:57;11.40;99.90
61253;DHT22;47127;47.516;8.596;2023-04-24T02:08:23;11.50;99.90
61253;DHT22;47127;47.516;8.596;2023-04-24T02:10:49;11.40;99.90
61253;DHT22;47127;47.516;8.596;2023-04-24T02:13:14;11.50;99.90
61253;DHT22;47127;47.516;8.596;2023-04-24T02:15:40;11.40;99.90
61253;DHT22;47127;47.516;8.596;2023-04-24T02:18:05;11.40;99.90
61253;DHT22;47127;47.516;8.596;2023-04-24T02:20:32;11.30;99.90
61253;DHT22;47127;47.516;8.596;2023-04-24T02:22:59;11.30;99.90
61253;DHT22;47127;47.516;8.596;2023-04-24T02:25:25;11.30;99.90
61253;DHT22;47127;47.516;8.596;2023-04-24T02:27:51;11.20;99.90
61253;DHT22;47127;47.516;8.596;2023-04-24T02:30:17;11.30;99.90
61253;DHT22;47127;47.516;8.596;2023-04-24T02:32:42;11.20;99.90
61253;DHT22;47127;47.516;8.596;2023-04-24T02:35:08;11.10;99.90
61253;DHT22;47127;47.516;8.596;2023-04-24T02:37:34;11.10;99.90
61253;DHT22;47127;47.516;8.596;2023-04-24T02:39:59;11.10;99.90
61253;DHT22;47127;47.516;8.596;2023-04-24T02:42:25;11.10;99.90
61253;DHT22;47127;47.516;8.596;2023-04-24T02:44:50;11.10;99.90
61253;DHT22;47127;47.516;8.596;2023-04-24T02:47:16;11.20;99.90
61253;DHT22;47127;47.516;8.596;2023-04-24T02:49:42;11.20;99.90
61253;DHT22;47127;47.516;8.596;2023-04-24T02:52:07;11.30;99.90
61253;DHT22;47127;47.516;8.596;2023-04-24T02:54:33;11.20;99.90
61253;DHT22;47127;47.516;8.596;2023-04-24T02:56:58;11.20;99.90
61253;DHT22;47127;47.516;8.596;2023-04-24T02:59:24;11.20;99.90
61253;DHT22;47127;47.516;8.596;2023-04-24T03:01:49;11.20;99.90
61253;DHT22;47127;47.516;8.596;2023-04-24T03:04:15;11.10;99.90
61253;DHT22;47127;47.516;8.596;2023-04-24T03:06:41;11.10;99.90
61253;DHT22;47127;47.516;8.596;2023-04-24T03:09:07;11.10;99.90
61253;DHT22;47127;47.516;8.596;2023-04-24T03:11:33;11.10;99.90
61253;DHT22;47127;47.516;8.596;2023-04-24T03:13:58;11.10;99.90
61253;DHT22;47127;47.516;8.596;2023-04-24T03:16:24;11.10;99.90
61253;DHT22;47127;47.516;8.596;2023-04-24T03:18:49;11.10;99.90
61253;DHT22;47127;47.516;8.596;2023-04-24T03:21:15;11.00;99.90
61253;DHT22;47127;47.516;8.596;2023-04-24T03:23:40;11.00;99.90
61253;DHT22;47127;47.516;8.596;2023-04-24T03:26:06;11.00;99.90
61253;DHT22;47127;47.516;8.596;2023-04-24T03:28:31;11.10;99.90
61253;DHT22;47127;47.516;8.596;2023-04-24T03:30:57;11.20;99.90
61253;DHT22;47127;47.516;8.596;2023-04-24T03:33:22;11.20;99.90
61253;DHT22;47127;47.516;8.596;2023-04-24T03:35:48;11.10;99.90
61253;DHT22;47127;47.516;8.596;2023-04-24T03:38:13;11.10;99.90
61253;DHT22;47127;47.516;8.596;2023-04-24T03:40:39;11.00;99.90
61253;DHT22;47127;47.516;8.596;2023-04-24T03:43:05;11.00;99.90
61253;DHT22;47127;47.516;8.596;2023-04-24T03:45:30;11.00;99.90
61253;DHT22;47127;47.516;8.596;2023-04-24T03:47:56;11.00;99.90
61253;DHT22;47127;47.516;8.596;2023-04-24T03:50:21;10.80;99.90
61253;DHT22;47127;47.516;8.596;2023-04-24T03:52:47;10.80;99.90
61253;DHT22;47127;47.516;8.596;2023-04-24T03:55:12;10.90;99.90
61253;DHT22;47127;47.516;8.596;2023-04-24T03:57:40;11.00;99.90
61253;DHT22;47127;47.516;8.596;2023-04-24T04:00:06;11.10;99.90
61253;DHT22;47127;47.516;8.596;2023-04-24T04:02:32;11.10;99.90
61253;DHT22;47127;47.516;8.596;2023-04-24T04:04:57;11.20;99.90
61253;DHT22;47127;47.516;8.596;2023-04-24T04:07:23;11.00;99.90
61253;DHT22;47127;47.516;8.596;2023-04-24T04:09:48;11.00;99.90
61253;DHT22;47127;47.516;8.596;2023-04-24T04:12:14;11.00;99.90
61253;DHT22;47127;47.516;8.596;2023-04-24T04:14:39;11.00;99.90
61253;DHT22;47127;47.516;8.596;2023-04-24T04:17:05;11.00;99.90
61253;DHT22;47127;47.516;8.596;2023-04-24T04:19:31;11.00;99.90
61253;DHT22;47127;47.516;8.596;2023-04-24T04:21:58;11.10;99.90
61253;DHT22;47127;47.516;8.596;2023-04-24T04:24:24;11.00;99.90
61253;DHT22;47127;47.516;8.596;2023-04-24T04:26:51;11.00;99.90
61253;DHT22;47127;47.516;8.596;2023-04-24T04:29:17;11.20;99.90
61253;DHT22;47127;47.516;8.596;2023-04-24T04:31:47;11.20;99.90
61253;DHT22;47127;47.516;8.596;2023-04-24T04:34:13;11.20;99.90
61253;DHT22;47127;47.516;8.596;2023-04-24T04:36:40;11.10;99.90
61253;DHT22;47127;47.516;8.596;2023-04-24T04:39:06;11.10;99.90
61253;DHT22;47127;47.516;8.596;2023-04-24T04:41:32;10.90;99.90
61253;DHT22;47127;47.516;8.596;2023-04-24T04:44:00;10.70;99.90
61253;DHT22;47127;47.516;8.596;2023-04-24T04:46:26;10.60;99.90
61253;DHT22;47127;47.516;8.596;2023-04-24T04:48:53;10.60;99.90
61253;DHT22;47127;47.516;8.596;2023-04-24T04:51:18;10.60;99.90
61253;DHT22;47127;47.516;8.596;2023-04-24T04:53:44;10.50;99.90
61253;DHT22;47127;47.516;8.596;2023-04-24T04:56:10;10.40;99.90
61253;DHT22;47127;47.516;8.596;2023-04-24T04:58:35;10.40;99.90
61253;DHT22;47127;47.516;8.596;2023-04-24T05:01:01;10.50;99.90
61253;DHT22;47127;47.516;8.596;2023-04-24T05:03:27;10.60;99.90
61253;DHT22;47127;47.516;8.596;2023-04-24T05:05:53;10.60;99.90
61253;DHT22;47127;47.516;8.596;2023-04-24T05:08:20;10.60;99.90
61253;DHT22;47127;47.516;8.596;2023-04-24T05:10:45;10.60;99.90
61253;DHT22;47127;47.516;8.596;2023-04-24T05:13:11;10.70;99.90
61253;DHT22;47127;47.516;8.596;2023-04-24T05:15:36;10.70;99.90
61253;DHT22;47127;47.516;8.596;2023-04-24T05:18:02;10.40;99.90
61253;DHT22;47127;47.516;8.596;2023-04-24T05:20:28;10.40;99.90
61253;DHT22;47127;47.516;8.596;2023-04-24T05:22:53;10.50;99.90
61253;DHT22;47127;47.516;8.596;2023-04-24T05:25:19;10.60;99.90
61253;DHT22;47127;47.516;8.596;2023-04-24T05:27:45;10.70;99.90
61253;DHT22;47127;47.516;8.596;2023-04-24T05:30:11;10.70;99.90
61253;DHT22;47127;47.516;8.596;2023-04-24T05:32:37;10.70;99.90
61253;DHT22;47127;47.516;8.596;2023-04-24T05:35:04;10.70;99.90
61253;DHT22;47127;47.516;8.596;2023-04-24T05:37:30;10.70;99.90
61253;DHT22;47127;47.516;8.596;2023-04-24T05:39:55;10.60;99.90
61253;DHT22;47127;47.516;8.596;2023-04-24T05:42:21;10.70;99.90
61253;DHT22;47127;47.516;8.596;2023-04-24T05:44:47;10.70;99.90
61253;DHT22;47127;47.516;8.596;2023-04-24T05:47:12;10.80;99.90
61253;DHT22;47127;47.516;8.596;2023-04-24T05:49:38;10.70;99.90
61253;DHT22;47127;47.516;8.596;2023-04-24T05:52:03;10.70;99.90
61253;DHT22;47127;47.516;8.596;2023-04-24T05:54:30;10.70;99.90
61253;DHT22;47127;47.516;8.596;2023-04-24T05:56:56;10.70;99.90
61253;DHT22;47127;47.516;8.596;2023-04-24T05:59:21;10.70;99.90
61253;DHT22;47127;47.516;8.596;2023-04-24T06:01:47;10.60;99.90
61253;DHT22;47127;47.516;8.596;2023-04-24T06:04:12;10.70;99.90
61253;DHT22;47127;47.516;8.596;2023-04-24T06:06:41;10.80;99.90
61253;DHT22;47127;47.516;8.596;2023-04-24T06:09:06;11.00;99.90
61253;DHT22;47127;47.516;8.596;2023-04-24T06:11:32;11.00;99.90
61253;DHT22;47127;47.516;8.596;2023-04-24T06:13:58;11.00;99.90
61253;DHT22;47127;47.516;8.596;2023-04-24T06:16:23;11.00;99.90
61253;DHT22;47127;47.516;8.596;2023-04-24T06:18:49;11.00;99.90
61253;DHT22;47127;47.516;8.596;2023-04-24T06:21:16;11.10;99.90
61253;DHT22;47127;47.516;8.596;2023-04-24T06:23:42;11.20;99.90
61253;DHT22;47127;47.516;8.596;2023-04-24T06:26:07;11.30;99.90
61253;DHT22;47127;47.516;8.596;2023-04-24T06:28:33;11.40;99.90
61253;DHT22;47127;47.516;8.596;2023-04-24T06:30:58;11.10;99.90
61253;DHT22;47127;47.516;8.596;2023-04-24T06:33:24;11.20;99.90
61253;DHT22;47127;47.516;8.596;2023-04-24T06:35:49;11.20;99.90
61253;DHT22;47127;47.516;8.596;2023-04-24T06:38:15;11.30;99.90
61253;DHT22;47127;47.516;8.596;2023-04-24T06:40:41;11.50;99.90
61253;DHT22;47127;47.516;8.596;2023-04-24T06:43:06;11.60;99.90
61253;DHT22;47127;47.516;8.596;2023-04-24T06:45:32;11.50;99.90
61253;DHT22;47127;47.516;8.596;2023-04-24T06:47:58;11.60;99.90
61253;DHT22;47127;47.516;8.596;2023-04-24T06:50:24;11.60;99.90
61253;DHT22;47127;47.516;8.596;2023-04-24T06:52:49;11.60;99.90
61253;DHT22;47127;47.516;8.596;2023-04-24T06:55:15;11.70;99.90
61253;DHT22;47127;47.516;8.596;2023-04-24T06:57:42;11.50;99.90
61253;DHT22;47127;47.516;8.596;2023-04-24T07:00:08;11.40;99.90
61253;DHT22;47127;47.516;8.596;2023-04-24T07:02:35;11.40;99.90
61253;DHT22;47127;47.516;8.596;2023-04-24T07:05:00;11.20;99.90
61253;DHT22;47127;47.516;8.596;2023-04-24T07:07:26;11.00;99.90
61253;DHT22;47127;47.516;8.596;2023-04-24T07:09:52;11.10;99.90
61253;DHT22;47127;47.516;8.596;2023-04-24T07:12:19;11.10;99.90
61253;DHT22;47127;47.516;8.596;2023-04-24T07:14:47;11.00;99.90
61253;DHT22;47127;47.516;8.596;2023-04-24T07:17:12;11.20;99.90
61253;DHT22;47127;47.516;8.596;2023-04-24T07:19:38;11.50;99.90
61253;DHT22;47127;47.516;8.596;2023-04-24T07:22:04;11.60;99.90
61253;DHT22;47127;47.516;8.596;2023-04-24T07:24:31;11.70;99.90
61253;DHT22;47127;47.516;8.596;2023-04-24T07:26:59;11.70;99.90
61253;DHT22;47127;47.516;8.596;2023-04-24T07:29:26;11.80;99.90
61253;DHT22;47127;47.516;8.596;2023-04-24T07:31:52;11.90;99.90
61253;DHT22;47127;47.516;8.596;2023-04-24T07:34:19;11.80;99.90
61253;DHT22;47127;47.516;8.596;2023-04-24T07:36:46;11.70;99.90
61253;DHT22;47127;47.516;8.596;2023-04-24T07:39:12;11.90;99.90
61253;DHT22;47127;47.516;8.596;2023-04-24T07:41:38;11.90;99.90
61253;DHT22;47127;47.516;8.596;2023-04-24T07:44:03;11.80;99.90
61253;DHT22;47127;47.516;8.596;2023-04-24T07:46:31;11.50;99.90
61253;DHT22;47127;47.516;8.596;2023-04-24T07:48:57;10.80;99.90
61253;DHT22;47127;47.516;8.596;2023-04-24T07:51:24;10.50;99.90
61253;DHT22;47127;47.516;8.596;2023-04-24T07:53:53;10.40;99.90
61253;DHT22;47127;47.516;8.596;2023-04-24T07:56:20;10.20;99.90
61253;DHT22;47127;47.516;8.596;2023-04-24T07:58:46;10.10;99.90
61253;DHT22;47127;47.516;8.596;2023-04-24T08:01:11;9.90;99.90
61253;DHT22;47127;47.516;8.596;2023-04-24T08:03:37;9.90;99.90
61253;DHT22;47127;47.516;8.596;2023-04-24T08:06:02;10.00;99.90
61253;DHT22;47127;47.516;8.596;2023-04-24T08:08:28;10.10;99.90
61253;DHT22;47127;47.516;8.596;2023-04-24T08:10:54;9.80;99.90
61253;DHT22;47127;47.516;8.596;2023-04-24T08:13:21;10.00;99.90
61253;DHT22;47127;47.516;8.596;2023-04-24T08:15:48;10.00;99.90
61253;DHT22;47127;47.516;8.596;2023-04-24T08:18:13;10.20;99.90
61253;DHT22;47127;47.516;8.596;2023-04-24T08:20:41;10.00;99.90
61253;DHT22;47127;47.516;8.596;2023-04-24T08:23:06;9.80;99.90
61253;DHT22;47127;47.516;8.596;2023-04-24T08:25:33;9.70;99.90
61253;DHT22;47127;47.516;8.596;2023-04-24T08:28:01;9.70;99.90
61253;DHT22;47127;47.516;8.596;2023-04-24T08:30:27;9.80;99.90
61253;DHT22;47127;47.516;8.596;2023-04-24T08:32:53;9.70;99.90
61253;DHT22;47127;47.516;8.596;2023-04-24T08:35:18;9.80;99.90
61253;DHT22;47127;47.516;8.596;2023-04-24T08:37:44;10.00;99.90
61253;DHT22;47127;47.516;8.596;2023-04-24T08:40:14;10.20;99.90
61253;DHT22;47127;47.516;8.596;2023-04-24T08:42:45;10.20;99.90
61253;DHT22;47127;47.516;8.596;2023-04-24T08:45:11;10.40;99.90
61253;DHT22;47127;47.516;8.596;2023-04-24T08:47:38;10.30;99.90
61253;DHT22;47127;47.516;8.596;2023-04-24T08:50:07;10.30;99.90
61253;DHT22;47127;47.516;8.596;2023-04-24T08:52:34;10.40;99.90
61253;DHT22;47127;47.516;8.596;2023-04-24T08:55:03;10.80;99.90
61253;DHT22;47127;47.516;8.596;2023-04-24T08:57:29;10.90;99.90
61253;DHT22;47127;47.516;8.596;2023-04-24T08:59:56;11.10;99.90
61253;DHT22;47127;47.516;8.596;2023-04-24T09:02:23;11.40;99.90
61253;DHT22;47127;47.516;8.596;2023-04-24T09:04:51;11.50;99.90
61253;DHT22;47127;47.516;8.596;2023-04-24T09:07:18;11.10;99.90
61253;DHT22;47127;47.516;8.596;2023-04-24T09:09:45;11.00;99.90
61253;DHT22;47127;47.516;8.596;2023-04-24T09:12:11;11.20;99.90
61253;DHT22;47127;47.516;8.596;2023-04-24T09:14:37;11.30;99.90
61253;DHT22;47127;47.516;8.596;2023-04-24T09:17:07;11.30;99.90
61253;DHT22;47127;47.516;8.596;2023-04-24T09:19:33;11.30;99.90
61253;DHT22;47127;47.516;8.596;2023-04-24T09:21:59;11.30;99.90
61253;DHT22;47127;47.516;8.596;2023-04-24T09:24:24;11.20;99.90
61253;DHT22;47127;47.516;8.596;2023-04-24T09:26:59;11.10;99.90
61253;DHT22;47127;47.516;8.596;2023-04-24T09:29:27;11.10;99.90
61253;DHT22;47127;47.516;8.596;2023-04-24T09:31:53;11.30;99.90
61253;DHT22;47127;47.516;8.596;2023-04-24T09:34:24;11.50;99.90
61253;DHT22;47127;47.516;8.596;2023-04-24T09:36:50;11.70;99.90
61253;DHT22;47127;47.516;8.596;2023-04-24T09:39:17;11.60;99.90
61253;DHT22;47127;47.516;8.596;2023-04-24T09:41:52;11.50;99.90
61253;DHT22;47127;47.516;8.596;2023-04-24T09:44:20;11.40;99.90
61253;DHT22;47127;47.516;8.596;2023-04-24T09:46:53;11.40;99.90
61253;DHT22;47127;47.516;8.596;2023-04-24T09:49:24;11.60;99.90
61253;DHT22;47127;47.516;8.596;2023-04-24T09:51:51;11.40;99.90
61253;DHT22;47127;47.516;8.596;2023-04-24T09:54:19;11.10;99.90
61253;DHT22;47127;47.516;8.596;2023-04-24T09:56:48;11.10;99.90
61253;DHT22;47127;47.516;8.596;2023-04-24T09:59:15;11.10;99.90
61253;DHT22;47127;47.516;8.596;2023-04-24T10:01:41;11.20;99.90
61253;DHT22;47127;47.516;8.596;2023-04-24T10:04:18;11.30;99.90
61253;DHT22;47127;47.516;8.596;2023-04-24T10:06:45;11.40;99.90
61253;DHT22;47127;47.516;8.596;2023-04-24T10:09:12;11.40;99.90
61253;DHT22;47127;47.516;8.596;2023-04-24T10:11:43;11.70;99.90
61253;DHT22;47127;47.516;8.596;2023-04-24T10:14:20;11.90;99.90
61253;DHT22;47127;47.516;8.596;2023-04-24T10:16:46;12.10;99.90
61253;DHT22;47127;47.516;8.596;2023-04-24T10:19:13;12.40;99.90
61253;DHT22;47127;47.516;8.596;2023-04-24T10:21:41;12.30;99.90
61253;DHT22;47127;47.516;8.596;2023-04-24T10:24:17;12.10;99.90
61253;DHT22;47127;47.516;8.596;2023-04-24T10:26:44;12.10;99.90
61253;DHT22;47127;47.516;8.596;2023-04-24T10:29:12;12.10;99.90
61253;DHT22;47127;47.516;8.596;2023-04-24T10:31:39;12.20;99.90
61253;DHT22;47127;47.516;8.596;2023-04-24T10:34:06;12.10;99.90
61253;DHT22;47127;47.516;8.596;2023-04-24T10:36:32;11.90;99.90
61253;DHT22;47127;47.516;8.596;2023-04-24T10:39:01;11.90;99.90
61253;DHT22;47127;47.516;8.596;2023-04-24T10:41:27;12.00;99.90
61253;DHT22;47127;47.516;8.596;2023-04-24T10:44:13;12.00;99.90
61253;DHT22;47127;47.516;8.596;2023-04-24T10:46:43;12.10;99.90
61253;DHT22;47127;47.516;8.596;2023-04-24T10:49:08;12.20;99.80
61253;DHT22;47127;47.516;8.596;2023-04-24T10:51:54;12.30;99.90
61253;DHT22;47127;47.516;8.596;2023-04-24T10:59:43;13.20;99.90
61253;DHT22;47127;47.516;8.596;2023-04-24T11:02:09;13.40;98.70
61253;DHT22;47127;47.516;8.596;2023-04-24T11:04:35;13.30;99.20
61253;DHT22;47127;47.516;8.596;2023-04-24T11:07:02;13.20;98.10
61253;DHT22;47127;47.516;8.596;2023-04-24T11:09:30;13.00;98.40
61253;DHT22;47127;47.516;8.596;2023-04-24T11:12:07;12.80;99.00
61253;DHT22;47127;47.516;8.596;2023-04-24T11:17:31;13.00;99.60
61253;DHT22;47127;47.516;8.596;2023-04-24T11:20:09;13.00;99.20
61253;DHT22;47127;47.516;8.596;2023-04-24T11:22:36;13.10;98.90
61253;DHT22;47127;47.516;8.596;2023-04-24T11:25:06;12.70;98.90
61253;DHT22;47127;47.516;8.596;2023-04-24T11:27:39;12.80;98.80
61253;DHT22;47127;47.516;8.596;2023-04-24T11:30:05;12.60;98.50
61253;DHT22;47127;47.516;8.596;2023-04-24T11:35:18;12.40;99.30
61253;DHT22;47127;47.516;8.596;2023-04-24T11:37:46;12.40;99.10
61253;DHT22;47127;47.516;8.596;2023-04-24T11:40:14;12.30;98.80
61253;DHT22;47127;47.516;8.596;2023-04-24T11:42:46;12.40;99.00
61253;DHT22;47127;47.516;8.596;2023-04-24T11:45:18;12.30;99.10
61253;DHT22;47127;47.516;8.596;2023-04-24T11:47:44;12.30;99.60
61253;DHT22;47127;47.516;8.596;2023-04-24T11:50:28;12.50;99.20
61253;DHT22;47127;47.516;8.596;2023-04-24T11:52:55;12.20;99.70
61253;DHT22;47127;47.516;8.596;2023-04-24T11:55:22;12.00;99.90
61253;DHT22;47127;47.516;8.596;2023-04-24T11:57:51;12.40;99.60
61253;DHT22;47127;47.516;8.596;2023-04-24T12:00:31;12.60;99.90
61253;DHT22;47127;47.516;8.596;2023-04-24T12:03:08;12.70;98.80
61253;DHT22;47127;47.516;8.596;2023-04-24T12:05:34;12.70;99.10
61253;DHT22;47127;47.516;8.596;2023-04-24T12:08:00;12.60;98.30
61253;DHT22;47127;47.516;8.596;2023-04-24T12:10:28;12.50;98.80
61253;DHT22;47127;47.516;8.596;2023-04-24T12:12:56;12.40;97.90
61253;DHT22;47127;47.516;8.596;2023-04-24T12:15:23;12.20;98.60
61253;DHT22;47127;47.516;8.596;2023-04-24T12:17:51;12.30;97.80
61253;DHT22;47127;47.516;8.596;2023-04-24T12:20:17;12.40;98.60
61253;DHT22;47127;47.516;8.596;2023-04-24T12:22:50;13.00;98.70
61253;DHT22;47127;47.516;8.596;2023-04-24T12:25:17;13.00;96.70
61253;DHT22;47127;47.516;8.596;2023-04-24T12:27:44;12.90;96.90
61253;DHT22;47127;47.516;8.596;2023-04-24T12:30:15;12.80;97.90
61253;DHT22;47127;47.516;8.596;2023-04-24T12:32:46;12.70;97.20
61253;DHT22;47127;47.516;8.596;2023-04-24T12:35:13;12.70;96.90
61253;DHT22;47127;47.516;8.596;2023-04-24T12:37:42;12.80;97.20
61253;DHT22;47127;47.516;8.596;2023-04-24T12:40:12;13.10;97.60
61253;DHT22;47127;47.516;8.596;2023-04-24T12:42:48;13.30;97.40
61253;DHT22;47127;47.516;8.596;2023-04-24T12:45:15;13.30;96.90
61253;DHT22;47127;47.516;8.596;2023-04-24T12:47:44;13.10;98.30
61253;DHT22;47127;47.516;8.596;2023-04-24T12:50:14;13.50;97.20
61253;DHT22;47127;47.516;8.596;2023-04-24T12:52:40;13.60;95.10
61253;DHT22;47127;47.516;8.596;2023-04-24T12:55:07;13.90;95.40
61253;DHT22;47127;47.516;8.596;2023-04-24T12:57:37;14.20;95.90
61253;DHT22;47127;47.516;8.596;2023-04-24T13:00:04;14.70;95.70
61253;DHT22;47127;47.516;8.596;2023-04-24T13:02:30;14.60;94.00
61253;DHT22;47127;47.516;8.596;2023-04-24T13:04:57;14.20;94.90
61253;DHT22;47127;47.516;8.596;2023-04-24T13:07:23;13.60;96.00
61253;DHT22;47127;47.516;8.596;2023-04-24T13:09:50;13.50;95.60
61253;DHT22;47127;47.516;8.596;2023-04-24T13:12:16;13.60;95.80
61253;DHT22;47127;47.516;8.596;2023-04-24T13:14:42;13.90;94.60
61253;DHT22;47127;47.516;8.596;2023-04-24T13:17:07;14.00;95.60
61253;DHT22;47127;47.516;8.596;2023-04-24T13:19:38;13.80;94.70
61253;DHT22;47127;47.516;8.596;2023-04-24T13:22:05;13.80;94.90
61253;DHT22;47127;47.516;8.596;2023-04-24T13:24:31;13.70;95.10
61253;DHT22;47127;47.516;8.596;2023-04-24T13:26:57;13.70;94.50
61253;DHT22;47127;47.516;8.596;2023-04-24T13:29:23;13.40;95.60
61253;DHT22;47127;47.516;8.596;2023-04-24T13:31:52;13.50;95.40
61253;DHT22;47127;47.516;8.596;2023-04-24T13:34:20;13.50;95.40
61253;DHT22;47127;47.516;8.596;2023-04-24T13:36:46;13.40;95.80
61253;DHT22;47127;47.516;8.596;2023-04-24T13:39:11;13.50;95.90
61253;DHT22;47127;47.516;8.596;2023-04-24T13:41:37;13.80;95.90
61253;DHT22;47127;47.516;8.596;2023-04-24T13:44:04;14.00;95.10
61253;DHT22;47127;47.516;8.596;2023-04-24T13:46:29;13.90;95.60
61253;DHT22;47127;47.516;8.596;2023-04-24T13:48:55;13.90;95.20
61253;DHT22;47127;47.516;8.596;2023-04-24T13:51:25;14.00;95.00
61253;DHT22;47127;47.516;8.596;2023-04-24T13:53:52;14.50;95.10
61253;DHT22;47127;47.516;8.596;2023-04-24T13:56:18;14.70;94.20
61253;DHT22;47127;47.516;8.596;2023-04-24T13:58:44;14.10;94.00
61253;DHT22;47127;47.516;8.596;2023-04-24T14:01:09;13.70;95.10
61253;DHT22;47127;47.516;8.596;2023-04-24T14:03:37;13.60;96.30
61253;DHT22;47127;47.516;8.596;2023-04-24T14:06:03;13.80;96.10
61253;DHT22;47127;47.516;8.596;2023-04-24T14:08:29;13.70;96.50
61253;DHT22;47127;47.516;8.596;2023-04-24T14:10:54;13.40;96.10
61253;DHT22;47127;47.516;8.596;2023-04-24T14:13:20;13.10;96.60
61253;DHT22;47127;47.516;8.596;2023-04-24T14:15:46;12.70;96.90
61253;DHT22;47127;47.516;8.596;2023-04-24T14:18:12;12.60;98.30
61253;DHT22;47127;47.516;8.596;2023-04-24T14:20:37;12.70;98.40
61253;DHT22;47127;47.516;8.596;2023-04-24T14:23:03;12.70;98.40
61253;DHT22;47127;47.516;8.596;2023-04-24T14:25:29;12.80;98.40
61253;DHT22;47127;47.516;8.596;2023-04-24T14:27:55;12.70;98.50
61253;DHT22;47127;47.516;8.596;2023-04-24T14:30:21;12.80;99.30
61253;DHT22;47127;47.516;8.596;2023-04-24T14:32:46;12.90;99.20
61253;DHT22;47127;47.516;8.596;2023-04-24T14:35:12;12.70;99.40
61253;DHT22;47127;47.516;8.596;2023-04-24T14:37:38;12.80;98.60
61253;DHT22;47127;47.516;8.596;2023-04-24T14:40:07;12.80;98.20
61253;DHT22;47127;47.516;8.596;2023-04-24T14:42:33;12.90;97.80
61253;DHT22;47127;47.516;8.596;2023-04-24T14:44:59;13.20;98.00
61253;DHT22;47127;47.516;8.596;2023-04-24T14:47:25;13.20;98.20
61253;DHT22;47127;47.516;8.596;2023-04-24T14:49:50;13.30;97.10
61253;DHT22;47127;47.516;8.596;2023-04-24T14:52:16;13.40;96.00
61253;DHT22;47127;47.516;8.596;2023-04-24T14:54:42;14.00;95.40
61253;DHT22;47127;47.516;8.596;2023-04-24T14:57:08;14.20;94.60
61253;DHT22;47127;47.516;8.596;2023-04-24T14:59:34;14.00;94.10
61253;DHT22;47127;47.516;8.596;2023-04-24T15:02:00;14.10;93.40
61253;DHT22;47127;47.516;8.596;2023-04-24T15:04:26;14.10;94.00
61253;DHT22;47127;47.516;8.596;2023-04-24T15:06:52;14.00;94.20
61253;DHT22;47127;47.516;8.596;2023-04-24T15:09:23;13.70;94.40
61253;DHT22;47127;47.516;8.596;2023-04-24T15:11:49;13.60;94.80
61253;DHT22;47127;47.516;8.596;2023-04-24T15:14:16;13.40;95.50
61253;DHT22;47127;47.516;8.596;2023-04-24T15:16:42;13.40;95.60
61253;DHT22;47127;47.516;8.596;2023-04-24T15:19:08;13.50;94.80
61253;DHT22;47127;47.516;8.596;2023-04-24T15:21:33;13.60;94.80
61253;DHT22;47127;47.516;8.596;2023-04-24T15:23:59;13.60;94.70
61253;DHT22;47127;47.516;8.596;2023-04-24T15:26:24;13.60;94.70
61253;DHT22;47127;47.516;8.596;2023-04-24T15:28:51;13.30;95.20
61253;DHT22;47127;47.516;8.596;2023-04-24T15:31:17;13.20;97.00
61253;DHT22;47127;47.516;8.596;2023-04-24T15:33:43;13.30;96.20
61253;DHT22;47127;47.516;8.596;2023-04-24T15:36:09;13.50;97.40
61253;DHT22;47127;47.516;8.596;2023-04-24T15:38:35;13.60;96.60